sensor_id;sensor_type;location;lat;lon;timestamp;P1;durP1;ratioP1;P2;durP2;ratioP2
20611;SDS011;10465;42.686;23.364;2022-10-26T00:02:07;11.43;;;5.88;;
20611;SDS011;10465;42.686;23.364;2022-10-26T00:04:32;10.80;;;5.70;;
20611;SDS011;10465;42.686;23.364;2022-10-26T00:06:58;12.10;;;5.95;;
20611;SDS011;10465;42.686;23.364;2022-10-26T00:09:23;11.55;;;6.22;;
20611;SDS011;10465;42.686;23.364;2022-10-26T00:11:49;9.73;;;5.55;;
20611;SDS011;10465;42.686;23.364;2022-10-26T00:14:14;20.25;;;6.30;;
20611;SDS011;10465;42.686;23.364;2022-10-26T00:16:40;14.23;;;6.30;;
20611;SDS011;10465;42.686;23.364;2022-10-26T00:19:05;12.82;;;6.10;;
20611;SDS011;10465;42.686;23.364;2022-10-26T00:21:31;10.15;;;5.78;;
20611;SDS011;10465;42.686;23.364;2022-10-26T00:23:57;12.45;;;6.28;;
20611;SDS011;10465;42.686;23.364;2022-10-26T00:26:23;13.77;;;6.38;;
20611;SDS011;10465;42.686;23.364;2022-10-26T00:28:51;11.13;;;6.07;;
20611;SDS011;10465;42.686;23.364;2022-10-26T00:31:18;10.52;;;6.13;;
20611;SDS011;10465;42.686;23.364;2022-10-26T00:33:44;10.80;;;5.95;;
20611;SDS011;10465;42.686;23.364;2022-10-26T00:36:10;10.50;;;5.32;;
20611;SDS011;10465;42.686;23.364;2022-10-26T00:38:38;8.27;;;5.60;;
20611;SDS011;10465;42.686;23.364;2022-10-26T00:41:12;11.13;;;5.75;;
20611;SDS011;10465;42.686;23.364;2022-10-26T00:43:40;11.05;;;5.32;;
20611;SDS011;10465;42.686;23.364;2022-10-26T00:46:07;12.25;;;6.05;;
20611;SDS011;10465;42.686;23.364;2022-10-26T00:48:44;9.93;;;5.72;;
20611;SDS011;10465;42.686;23.364;2022-10-26T00:51:13;14.10;;;5.70;;
20611;SDS011;10465;42.686;23.364;2022-10-26T00:53:43;10.05;;;5.53;;
20611;SDS011;10465;42.686;23.364;2022-10-26T00:56:09;13.48;;;5.43;;
20611;SDS011;10465;42.686;23.364;2022-10-26T00:58:35;11.48;;;5.63;;
20611;SDS011;10465;42.686;23.364;2022-10-26T01:01:01;12.73;;;5.35;;
20611;SDS011;10465;42.686;23.364;2022-10-26T01:03:27;14.10;;;5.45;;
20611;SDS011;10465;42.686;23.364;2022-10-26T01:05:55;13.85;;;5.63;;
20611;SDS011;10465;42.686;23.364;2022-10-26T01:08:22;9.52;;;5.65;;
20611;SDS011;10465;42.686;23.364;2022-10-26T01:10:48;10.23;;;5.80;;
20611;SDS011;10465;42.686;23.364;2022-10-26T01:13:14;11.60;;;5.60;;
20611;SDS011;10465;42.686;23.364;2022-10-26T01:15:44;7.97;;;5.68;;
20611;SDS011;10465;42.686;23.364;2022-10-26T01:18:21;13.52;;;6.07;;
20611;SDS011;10465;42.686;23.364;2022-10-26T01:23:58;10.77;;;5.45;;
20611;SDS011;10465;42.686;23.364;2022-10-26T01:29:24;11.75;;;5.68;;
20611;SDS011;10465;42.686;23.364;2022-10-26T01:31:56;9.98;;;6.00;;
20611;SDS011;10465;42.686;23.364;2022-10-26T01:34:33;11.43;;;5.38;;
20611;SDS011;10465;42.686;23.364;2022-10-26T01:37:13;8.95;;;5.45;;
20611;SDS011;10465;42.686;23.364;2022-10-26T01:39:48;12.20;;;5.70;;
20611;SDS011;10465;42.686;23.364;2022-10-26T01:42:23;12.90;;;5.80;;
20611;SDS011;10465;42.686;23.364;2022-10-26T01:44:57;11.88;;;5.85;;
20611;SDS011;10465;42.686;23.364;2022-10-26T01:47:28;11.20;;;6.22;;
20611;SDS011;10465;42.686;23.364;2022-10-26T01:49:57;11.40;;;6.03;;
20611;SDS011;10465;42.686;23.364;2022-10-26T01:52:23;10.40;;;6.10;;
20611;SDS011;10465;42.686;23.364;2022-10-26T01:54:49;10.43;;;6.35;;
20611;SDS011;10465;42.686;23.364;2022-10-26T01:57:17;17.20;;;6.88;;
20611;SDS011;10465;42.686;23.364;2022-10-26T02:11:11;12.27;;;6.57;;
20611;SDS011;10465;42.686;23.364;2022-10-26T02:13:53;10.27;;;6.60;;
20611;SDS011;10465;42.686;23.364;2022-10-26T02:21:44;13.30;;;7.50;;
20611;SDS011;10465;42.686;23.364;2022-10-26T02:24:16;17.80;;;9.38;;
20611;SDS011;10465;42.686;23.364;2022-10-26T02:26:44;16.08;;;7.65;;
20611;SDS011;10465;42.686;23.364;2022-10-26T02:29:14;17.08;;;8.98;;
20611;SDS011;10465;42.686;23.364;2022-10-26T02:31:42;15.32;;;8.57;;
20611;SDS011;10465;42.686;23.364;2022-10-26T02:34:11;17.88;;;9.27;;
20611;SDS011;10465;42.686;23.364;2022-10-26T02:36:41;17.65;;;8.45;;
20611;SDS011;10465;42.686;23.364;2022-10-26T02:39:09;13.85;;;7.93;;
20611;SDS011;10465;42.686;23.364;2022-10-26T02:41:36;16.50;;;9.27;;
20611;SDS011;10465;42.686;23.364;2022-10-26T02:44:13;19.25;;;9.27;;
20611;SDS011;10465;42.686;23.364;2022-10-26T02:46:44;20.92;;;9.43;;
20611;SDS011;10465;42.686;23.364;2022-10-26T02:49:11;20.92;;;9.95;;
20611;SDS011;10465;42.686;23.364;2022-10-26T02:54:13;16.58;;;8.82;;
20611;SDS011;10465;42.686;23.364;2022-10-26T02:56:51;16.35;;;9.43;;
20611;SDS011;10465;42.686;23.364;2022-10-26T02:59:22;19.95;;;9.35;;
20611;SDS011;10465;42.686;23.364;2022-10-26T03:01:50;22.02;;;9.60;;
20611;SDS011;10465;42.686;23.364;2022-10-26T03:04:16;15.02;;;9.15;;
20611;SDS011;10465;42.686;23.364;2022-10-26T03:06:50;18.98;;;9.13;;
20611;SDS011;10465;42.686;23.364;2022-10-26T03:09:17;21.00;;;9.38;;
20611;SDS011;10465;42.686;23.364;2022-10-26T03:11:42;16.90;;;9.82;;
20611;SDS011;10465;42.686;23.364;2022-10-26T03:14:08;16.48;;;8.18;;
20611;SDS011;10465;42.686;23.364;2022-10-26T03:16:33;14.20;;;7.95;;
20611;SDS011;10465;42.686;23.364;2022-10-26T03:18:58;14.30;;;8.23;;
20611;SDS011;10465;42.686;23.364;2022-10-26T03:21:24;16.70;;;8.32;;
20611;SDS011;10465;42.686;23.364;2022-10-26T03:23:49;12.30;;;7.85;;
20611;SDS011;10465;42.686;23.364;2022-10-26T03:26:15;13.43;;;7.75;;
20611;SDS011;10465;42.686;23.364;2022-10-26T03:28:41;16.83;;;7.70;;
20611;SDS011;10465;42.686;23.364;2022-10-26T03:31:06;9.13;;;6.88;;
20611;SDS011;10465;42.686;23.364;2022-10-26T03:33:32;13.18;;;7.75;;
20611;SDS011;10465;42.686;23.364;2022-10-26T03:35:57;15.38;;;7.32;;
20611;SDS011;10465;42.686;23.364;2022-10-26T03:38:23;11.98;;;7.10;;
20611;SDS011;10465;42.686;23.364;2022-10-26T03:40:49;13.77;;;6.78;;
20611;SDS011;10465;42.686;23.364;2022-10-26T03:43:14;13.73;;;7.65;;
20611;SDS011;10465;42.686;23.364;2022-10-26T03:45:39;13.73;;;6.88;;
20611;SDS011;10465;42.686;23.364;2022-10-26T03:48:05;16.50;;;7.43;;
20611;SDS011;10465;42.686;23.364;2022-10-26T03:50:30;14.05;;;6.90;;
20611;SDS011;10465;42.686;23.364;2022-10-26T03:52:56;11.02;;;7.05;;
20611;SDS011;10465;42.686;23.364;2022-10-26T03:55:21;12.43;;;6.93;;
20611;SDS011;10465;42.686;23.364;2022-10-26T03:57:46;11.02;;;6.85;;
20611;SDS011;10465;42.686;23.364;2022-10-26T04:00:13;12.80;;;7.10;;
20611;SDS011;10465;42.686;23.364;2022-10-26T04:02:41;9.23;;;6.32;;
20611;SDS011;10465;42.686;23.364;2022-10-26T04:05:07;11.75;;;6.88;;
20611;SDS011;10465;42.686;23.364;2022-10-26T04:07:33;13.13;;;6.70;;
20611;SDS011;10465;42.686;23.364;2022-10-26T04:09:59;11.48;;;5.97;;
20611;SDS011;10465;42.686;23.364;2022-10-26T04:12:24;11.13;;;7.38;;
20611;SDS011;10465;42.686;23.364;2022-10-26T04:14:51;10.25;;;6.18;;
20611;SDS011;10465;42.686;23.364;2022-10-26T04:17:16;11.40;;;6.80;;
20611;SDS011;10465;42.686;23.364;2022-10-26T04:19:41;14.20;;;6.38;;
20611;SDS011;10465;42.686;23.364;2022-10-26T04:22:07;13.48;;;6.95;;
20611;SDS011;10465;42.686;23.364;2022-10-26T04:24:32;15.80;;;8.13;;
20611;SDS011;10465;42.686;23.364;2022-10-26T04:26:58;23.95;;;9.50;;
20611;SDS011;10465;42.686;23.364;2022-10-26T04:29:23;22.05;;;9.30;;
20611;SDS011;10465;42.686;23.364;2022-10-26T04:31:48;19.33;;;8.82;;
20611;SDS011;10465;42.686;23.364;2022-10-26T04:34:14;16.63;;;9.07;;
20611;SDS011;10465;42.686;23.364;2022-10-26T04:36:40;18.23;;;7.97;;
20611;SDS011;10465;42.686;23.364;2022-10-26T04:39:05;13.43;;;7.85;;
20611;SDS011;10465;42.686;23.364;2022-10-26T04:41:30;18.33;;;7.75;;
20611;SDS011;10465;42.686;23.364;2022-10-26T04:43:56;12.82;;;6.95;;
20611;SDS011;10465;42.686;23.364;2022-10-26T04:46:21;12.23;;;6.70;;
20611;SDS011;10465;42.686;23.364;2022-10-26T04:48:47;12.88;;;7.20;;
20611;SDS011;10465;42.686;23.364;2022-10-26T04:51:13;13.68;;;8.65;;
20611;SDS011;10465;42.686;23.364;2022-10-26T04:53:38;12.98;;;6.95;;
20611;SDS011;10465;42.686;23.364;2022-10-26T04:56:03;15.13;;;8.85;;
20611;SDS011;10465;42.686;23.364;2022-10-26T04:58:29;16.20;;;9.85;;
20611;SDS011;10465;42.686;23.364;2022-10-26T05:00:55;21.02;;;11.38;;
20611;SDS011;10465;42.686;23.364;2022-10-26T05:03:20;22.30;;;11.43;;
20611;SDS011;10465;42.686;23.364;2022-10-26T05:05:46;24.95;;;12.68;;
20611;SDS011;10465;42.686;23.364;2022-10-26T05:08:12;27.38;;;12.73;;
20611;SDS011;10465;42.686;23.364;2022-10-26T05:10:38;25.63;;;12.43;;
20611;SDS011;10465;42.686;23.364;2022-10-26T05:13:04;28.60;;;12.98;;
20611;SDS011;10465;42.686;23.364;2022-10-26T05:15:29;26.92;;;12.18;;
20611;SDS011;10465;42.686;23.364;2022-10-26T05:17:55;20.10;;;11.68;;
20611;SDS011;10465;42.686;23.364;2022-10-26T05:20:22;25.63;;;12.23;;
20611;SDS011;10465;42.686;23.364;2022-10-26T05:22:54;23.40;;;12.13;;
20611;SDS011;10465;42.686;23.364;2022-10-26T05:25:20;28.52;;;13.43;;
20611;SDS011;10465;42.686;23.364;2022-10-26T05:27:46;27.35;;;13.48;;
20611;SDS011;10465;42.686;23.364;2022-10-26T05:30:12;23.48;;;13.43;;
20611;SDS011;10465;42.686;23.364;2022-10-26T05:32:37;26.83;;;12.70;;
20611;SDS011;10465;42.686;23.364;2022-10-26T05:35:03;32.70;;;12.80;;
20611;SDS011;10465;42.686;23.364;2022-10-26T05:37:28;25.20;;;11.70;;
20611;SDS011;10465;42.686;23.364;2022-10-26T05:39:54;24.17;;;12.75;;
20611;SDS011;10465;42.686;23.364;2022-10-26T05:42:19;31.05;;;13.68;;
20611;SDS011;10465;42.686;23.364;2022-10-26T05:44:45;23.63;;;13.65;;
20611;SDS011;10465;42.686;23.364;2022-10-26T05:47:10;26.20;;;13.90;;
20611;SDS011;10465;42.686;23.364;2022-10-26T05:49:36;25.98;;;13.98;;
20611;SDS011;10465;42.686;23.364;2022-10-26T05:52:02;24.50;;;13.35;;
20611;SDS011;10465;42.686;23.364;2022-10-26T05:54:28;30.23;;;14.02;;
20611;SDS011;10465;42.686;23.364;2022-10-26T05:56:53;22.08;;;12.95;;
20611;SDS011;10465;42.686;23.364;2022-10-26T05:59:19;27.88;;;13.98;;
20611;SDS011;10465;42.686;23.364;2022-10-26T06:01:54;30.30;;;17.63;;
20611;SDS011;10465;42.686;23.364;2022-10-26T06:04:29;30.35;;;17.25;;
20611;SDS011;10465;42.686;23.364;2022-10-26T06:07:02;33.45;;;16.05;;
20611;SDS011;10465;42.686;23.364;2022-10-26T06:09:31;27.88;;;14.27;;
20611;SDS011;10465;42.686;23.364;2022-10-26T06:11:57;27.13;;;13.85;;
20611;SDS011;10465;42.686;23.364;2022-10-26T06:14:23;24.48;;;13.93;;
20611;SDS011;10465;42.686;23.364;2022-10-26T06:25:18;36.65;;;15.15;;
20611;SDS011;10465;42.686;23.364;2022-10-26T06:30:27;26.70;;;13.13;;
20611;SDS011;10465;42.686;23.364;2022-10-26T06:32:52;29.48;;;14.27;;
20611;SDS011;10465;42.686;23.364;2022-10-26T06:35:36;30.95;;;17.95;;
20611;SDS011;10465;42.686;23.364;2022-10-26T06:38:08;34.63;;;17.02;;
20611;SDS011;10465;42.686;23.364;2022-10-26T06:40:38;26.55;;;15.80;;
20611;SDS011;10465;42.686;23.364;2022-10-26T06:43:19;29.70;;;16.58;;
20611;SDS011;10465;42.686;23.364;2022-10-26T06:45:52;33.05;;;18.02;;
20611;SDS011;10465;42.686;23.364;2022-10-26T06:48:31;40.05;;;19.55;;
20611;SDS011;10465;42.686;23.364;2022-10-26T06:51:06;32.97;;;18.05;;
20611;SDS011;10465;42.686;23.364;2022-10-26T06:53:40;37.67;;;16.20;;
20611;SDS011;10465;42.686;23.364;2022-10-26T06:56:11;31.92;;;16.73;;
20611;SDS011;10465;42.686;23.364;2022-10-26T06:58:37;28.55;;;15.73;;
20611;SDS011;10465;42.686;23.364;2022-10-26T07:01:04;25.48;;;15.27;;
20611;SDS011;10465;42.686;23.364;2022-10-26T07:03:30;28.63;;;17.60;;
20611;SDS011;10465;42.686;23.364;2022-10-26T07:05:56;30.45;;;17.83;;
20611;SDS011;10465;42.686;23.364;2022-10-26T07:08:21;34.28;;;15.27;;
20611;SDS011;10465;42.686;23.364;2022-10-26T07:10:47;30.60;;;17.23;;
20611;SDS011;10465;42.686;23.364;2022-10-26T07:13:12;34.45;;;15.07;;
20611;SDS011;10465;42.686;23.364;2022-10-26T07:15:38;30.98;;;15.30;;
20611;SDS011;10465;42.686;23.364;2022-10-26T07:18:05;29.42;;;14.27;;
20611;SDS011;10465;42.686;23.364;2022-10-26T07:20:34;26.50;;;15.35;;
20611;SDS011;10465;42.686;23.364;2022-10-26T07:23:01;11.73;;;8.82;;
20611;SDS011;10465;42.686;23.364;2022-10-26T07:25:27;12.05;;;7.53;;
20611;SDS011;10465;42.686;23.364;2022-10-26T07:27:56;14.10;;;8.43;;
20611;SDS011;10465;42.686;23.364;2022-10-26T07:30:23;12.38;;;7.88;;
20611;SDS011;10465;42.686;23.364;2022-10-26T07:32:49;18.30;;;7.88;;
20611;SDS011;10465;42.686;23.364;2022-10-26T07:35:15;13.35;;;7.80;;
20611;SDS011;10465;42.686;23.364;2022-10-26T07:37:40;12.07;;;7.63;;
20611;SDS011;10465;42.686;23.364;2022-10-26T07:40:06;12.45;;;6.95;;
20611;SDS011;10465;42.686;23.364;2022-10-26T07:42:32;15.52;;;7.70;;
20611;SDS011;10465;42.686;23.364;2022-10-26T07:45:00;17.00;;;8.38;;
20611;SDS011;10465;42.686;23.364;2022-10-26T07:47:25;15.38;;;7.95;;
20611;SDS011;10465;42.686;23.364;2022-10-26T07:49:51;12.75;;;6.72;;
20611;SDS011;10465;42.686;23.364;2022-10-26T07:52:16;12.00;;;7.25;;
20611;SDS011;10465;42.686;23.364;2022-10-26T07:54:42;9.75;;;6.85;;
20611;SDS011;10465;42.686;23.364;2022-10-26T07:57:07;13.80;;;7.70;;
20611;SDS011;10465;42.686;23.364;2022-10-26T07:59:33;12.75;;;7.40;;
20611;SDS011;10465;42.686;23.364;2022-10-26T08:01:59;15.63;;;6.55;;
20611;SDS011;10465;42.686;23.364;2022-10-26T08:04:24;10.80;;;6.85;;
20611;SDS011;10465;42.686;23.364;2022-10-26T08:06:50;12.30;;;7.20;;
20611;SDS011;10465;42.686;23.364;2022-10-26T08:09:15;10.63;;;7.28;;
20611;SDS011;10465;42.686;23.364;2022-10-26T08:11:41;11.30;;;6.80;;
20611;SDS011;10465;42.686;23.364;2022-10-26T08:14:06;13.23;;;7.78;;
20611;SDS011;10465;42.686;23.364;2022-10-26T08:16:31;13.68;;;6.82;;
20611;SDS011;10465;42.686;23.364;2022-10-26T08:18:58;11.98;;;7.00;;
20611;SDS011;10465;42.686;23.364;2022-10-26T08:21:24;14.27;;;7.60;;
20611;SDS011;10465;42.686;23.364;2022-10-26T08:23:49;13.63;;;7.68;;
20611;SDS011;10465;42.686;23.364;2022-10-26T08:26:15;12.10;;;7.28;;
20611;SDS011;10465;42.686;23.364;2022-10-26T08:28:42;12.75;;;7.93;;
20611;SDS011;10465;42.686;23.364;2022-10-26T08:31:08;13.32;;;6.75;;
20611;SDS011;10465;42.686;23.364;2022-10-26T08:33:33;8.13;;;5.65;;
20611;SDS011;10465;42.686;23.364;2022-10-26T08:36:03;7.75;;;5.60;;
20611;SDS011;10465;42.686;23.364;2022-10-26T08:38:29;8.70;;;5.45;;
20611;SDS011;10465;42.686;23.364;2022-10-26T08:40:56;12.10;;;6.68;;
20611;SDS011;10465;42.686;23.364;2022-10-26T08:43:26;8.98;;;5.55;;
20611;SDS011;10465;42.686;23.364;2022-10-26T08:48:44;11.18;;;6.30;;
20611;SDS011;10465;42.686;23.364;2022-10-26T08:51:30;10.02;;;5.03;;
20611;SDS011;10465;42.686;23.364;2022-10-26T08:56:59;9.25;;;5.07;;
20611;SDS011;10465;42.686;23.364;2022-10-26T08:59:30;10.88;;;4.60;;
20611;SDS011;10465;42.686;23.364;2022-10-26T09:02:02;7.32;;;4.40;;
20611;SDS011;10465;42.686;23.364;2022-10-26T09:04:28;9.15;;;4.45;;
20611;SDS011;10465;42.686;23.364;2022-10-26T09:12:41;6.70;;;4.07;;
20611;SDS011;10465;42.686;23.364;2022-10-26T09:21:24;7.70;;;3.67;;
20611;SDS011;10465;42.686;23.364;2022-10-26T09:23:59;5.95;;;3.42;;
20611;SDS011;10465;42.686;23.364;2022-10-26T09:29:41;5.88;;;3.97;;
20611;SDS011;10465;42.686;23.364;2022-10-26T09:32:17;7.85;;;4.00;;
20611;SDS011;10465;42.686;23.364;2022-10-26T09:34:48;12.93;;;4.25;;
20611;SDS011;10465;42.686;23.364;2022-10-26T09:37:39;6.40;;;4.03;;
20611;SDS011;10465;42.686;23.364;2022-10-26T09:40:13;7.65;;;3.83;;
20611;SDS011;10465;42.686;23.364;2022-10-26T09:42:48;6.22;;;3.63;;
20611;SDS011;10465;42.686;23.364;2022-10-26T09:45:15;9.00;;;3.90;;
20611;SDS011;10465;42.686;23.364;2022-10-26T09:47:48;7.15;;;3.63;;
20611;SDS011;10465;42.686;23.364;2022-10-26T09:50:26;7.40;;;3.88;;
20611;SDS011;10465;42.686;23.364;2022-10-26T09:52:56;5.32;;;3.17;;
20611;SDS011;10465;42.686;23.364;2022-10-26T09:55:21;4.65;;;3.15;;
20611;SDS011;10465;42.686;23.364;2022-10-26T09:57:49;9.00;;;3.60;;
20611;SDS011;10465;42.686;23.364;2022-10-26T10:00:18;7.25;;;3.03;;
20611;SDS011;10465;42.686;23.364;2022-10-26T10:02:49;6.03;;;2.63;;
20611;SDS011;10465;42.686;23.364;2022-10-26T10:07:49;4.32;;;2.40;;
20611;SDS011;10465;42.686;23.364;2022-10-26T10:10:19;5.00;;;2.33;;
20611;SDS011;10465;42.686;23.364;2022-10-26T10:12:46;4.40;;;2.33;;
20611;SDS011;10465;42.686;23.364;2022-10-26T10:15:24;5.57;;;2.42;;
20611;SDS011;10465;42.686;23.364;2022-10-26T10:17:50;3.17;;;2.03;;
20611;SDS011;10465;42.686;23.364;2022-10-26T10:20:21;4.50;;;2.08;;
20611;SDS011;10465;42.686;23.364;2022-10-26T10:22:55;3.08;;;2.13;;
20611;SDS011;10465;42.686;23.364;2022-10-26T10:28:02;3.47;;;1.80;;
20611;SDS011;10465;42.686;23.364;2022-10-26T10:30:55;3.75;;;1.98;;
20611;SDS011;10465;42.686;23.364;2022-10-26T10:33:30;3.80;;;1.55;;
20611;SDS011;10465;42.686;23.364;2022-10-26T10:35:58;4.88;;;2.17;;
20611;SDS011;10465;42.686;23.364;2022-10-26T10:38:23;3.15;;;2.20;;
20611;SDS011;10465;42.686;23.364;2022-10-26T10:40:50;6.63;;;2.65;;
20611;SDS011;10465;42.686;23.364;2022-10-26T10:43:19;4.35;;;2.35;;
20611;SDS011;10465;42.686;23.364;2022-10-26T10:45:46;5.70;;;2.55;;
20611;SDS011;10465;42.686;23.364;2022-10-26T10:48:15;2.67;;;1.95;;
20611;SDS011;10465;42.686;23.364;2022-10-26T10:53:24;4.05;;;2.28;;
20611;SDS011;10465;42.686;23.364;2022-10-26T11:01:46;4.53;;;2.33;;
20611;SDS011;10465;42.686;23.364;2022-10-26T11:04:37;2.58;;;2.10;;
20611;SDS011;10465;42.686;23.364;2022-10-26T11:07:21;5.10;;;3.20;;
20611;SDS011;10465;42.686;23.364;2022-10-26T11:09:49;3.78;;;2.20;;
20611;SDS011;10465;42.686;23.364;2022-10-26T11:12:21;8.13;;;2.33;;
20611;SDS011;10465;42.686;23.364;2022-10-26T11:14:58;2.92;;;2.10;;
20611;SDS011;10465;42.686;23.364;2022-10-26T11:17:31;3.00;;;2.33;;
20611;SDS011;10465;42.686;23.364;2022-10-26T11:20:02;3.08;;;1.85;;
20611;SDS011;10465;42.686;23.364;2022-10-26T11:23:04;4.97;;;2.00;;
20611;SDS011;10465;42.686;23.364;2022-10-26T11:25:34;2.38;;;1.83;;
20611;SDS011;10465;42.686;23.364;2022-10-26T11:31:16;6.90;;;2.22;;
20611;SDS011;10465;42.686;23.364;2022-10-26T11:33:52;6.75;;;2.03;;
20611;SDS011;10465;42.686;23.364;2022-10-26T11:36:40;9.00;;;2.92;;
20611;SDS011;10465;42.686;23.364;2022-10-26T11:41:59;4.35;;;1.95;;
20611;SDS011;10465;42.686;23.364;2022-10-26T11:44:34;1.85;;;1.48;;
20611;SDS011;10465;42.686;23.364;2022-10-26T11:47:52;2.85;;;1.55;;
20611;SDS011;10465;42.686;23.364;2022-10-26T11:52:53;6.22;;;1.80;;
20611;SDS011;10465;42.686;23.364;2022-10-26T11:55:35;2.88;;;1.50;;
20611;SDS011;10465;42.686;23.364;2022-10-26T11:58:03;3.10;;;1.20;;
20611;SDS011;10465;42.686;23.364;2022-10-26T12:00:29;3.08;;;1.55;;
20611;SDS011;10465;42.686;23.364;2022-10-26T12:03:00;3.38;;;2.05;;
20611;SDS011;10465;42.686;23.364;2022-10-26T12:07:56;3.80;;;1.40;;
20611;SDS011;10465;42.686;23.364;2022-10-26T12:10:28;2.17;;;1.23;;
20611;SDS011;10465;42.686;23.364;2022-10-26T12:15:51;1.60;;;1.00;;
20611;SDS011;10465;42.686;23.364;2022-10-26T12:18:29;2.47;;;1.15;;
20611;SDS011;10465;42.686;23.364;2022-10-26T12:21:00;2.67;;;1.20;;
20611;SDS011;10465;42.686;23.364;2022-10-26T12:23:33;2.25;;;1.20;;
20611;SDS011;10465;42.686;23.364;2022-10-26T12:34:14;4.25;;;1.25;;
20611;SDS011;10465;42.686;23.364;2022-10-26T12:42:42;1.98;;;1.00;;
20611;SDS011;10465;42.686;23.364;2022-10-26T12:47:10;1.80;;;0.70;;
20611;SDS011;10465;42.686;23.364;2022-10-26T13:03:28;1.40;;;0.90;;
20611;SDS011;10465;42.686;23.364;2022-10-26T13:06:10;2.28;;;1.00;;
20611;SDS011;10465;42.686;23.364;2022-10-26T13:08:47;1.77;;;1.10;;
20611;SDS011;10465;42.686;23.364;2022-10-26T13:13:54;3.28;;;1.00;;
20611;SDS011;10465;42.686;23.364;2022-10-26T13:16:22;1.73;;;1.15;;
20611;SDS011;10465;42.686;23.364;2022-10-26T13:18:50;2.92;;;2.25;;
20611;SDS011;10465;42.686;23.364;2022-10-26T13:21:16;3.42;;;2.20;;
20611;SDS011;10465;42.686;23.364;2022-10-26T13:23:47;5.65;;;2.42;;
20611;SDS011;10465;42.686;23.364;2022-10-26T13:26:29;4.43;;;2.95;;
20611;SDS011;10465;42.686;23.364;2022-10-26T13:29:06;4.10;;;2.97;;
20611;SDS011;10465;42.686;23.364;2022-10-26T13:34:19;5.60;;;2.95;;
20611;SDS011;10465;42.686;23.364;2022-10-26T13:39:46;5.80;;;1.85;;
20611;SDS011;10465;42.686;23.364;2022-10-26T13:42:15;4.95;;;1.75;;
20611;SDS011;10465;42.686;23.364;2022-10-26T13:49:46;1.83;;;1.27;;
20611;SDS011;10465;42.686;23.364;2022-10-26T13:52:18;4.90;;;1.60;;
20611;SDS011;10465;42.686;23.364;2022-10-26T13:54:54;5.55;;;1.33;;
20611;SDS011;10465;42.686;23.364;2022-10-26T13:57:37;3.42;;;1.10;;
20611;SDS011;10465;42.686;23.364;2022-10-26T14:00:19;3.33;;;1.20;;
20611;SDS011;10465;42.686;23.364;2022-10-26T14:02:45;1.55;;;0.82;;
20611;SDS011;10465;42.686;23.364;2022-10-26T14:05:12;1.55;;;0.80;;
20611;SDS011;10465;42.686;23.364;2022-10-26T14:07:55;4.43;;;1.05;;
20611;SDS011;10465;42.686;23.364;2022-10-26T14:10:29;1.30;;;0.80;;
20611;SDS011;10465;42.686;23.364;2022-10-26T14:13:00;3.08;;;0.93;;
20611;SDS011;10465;42.686;23.364;2022-10-26T14:15:30;1.70;;;0.90;;
20611;SDS011;10465;42.686;23.364;2022-10-26T14:17:58;3.05;;;1.30;;
20611;SDS011;10465;42.686;23.364;2022-10-26T14:20:26;10.27;;;1.00;;
20611;SDS011;10465;42.686;23.364;2022-10-26T14:22:53;1.95;;;1.20;;
20611;SDS011;10465;42.686;23.364;2022-10-26T14:25:20;3.47;;;1.00;;
20611;SDS011;10465;42.686;23.364;2022-10-26T14:27:50;2.17;;;0.80;;
20611;SDS011;10465;42.686;23.364;2022-10-26T14:30:19;2.78;;;1.30;;
20611;SDS011;10465;42.686;23.364;2022-10-26T14:32:48;2.95;;;1.10;;
20611;SDS011;10465;42.686;23.364;2022-10-26T14:35:13;1.90;;;1.20;;
20611;SDS011;10465;42.686;23.364;2022-10-26T14:40:26;3.88;;;1.75;;
20611;SDS011;10465;42.686;23.364;2022-10-26T14:42:55;3.92;;;1.27;;
20611;SDS011;10465;42.686;23.364;2022-10-26T14:47:59;3.45;;;1.60;;
20611;SDS011;10465;42.686;23.364;2022-10-26T14:50:26;3.30;;;1.40;;
20611;SDS011;10465;42.686;23.364;2022-10-26T14:52:56;6.40;;;1.70;;
20611;SDS011;10465;42.686;23.364;2022-10-26T14:55:25;4.93;;;1.70;;
20611;SDS011;10465;42.686;23.364;2022-10-26T14:57:52;4.80;;;1.70;;
20611;SDS011;10465;42.686;23.364;2022-10-26T15:00:31;3.97;;;2.17;;
20611;SDS011;10465;42.686;23.364;2022-10-26T15:03:00;4.80;;;1.60;;
20611;SDS011;10465;42.686;23.364;2022-10-26T15:05:26;9.38;;;1.88;;
20611;SDS011;10465;42.686;23.364;2022-10-26T15:07:58;4.22;;;1.42;;
20611;SDS011;10465;42.686;23.364;2022-10-26T15:18:53;6.03;;;2.00;;
20611;SDS011;10465;42.686;23.364;2022-10-26T15:21:23;4.38;;;2.70;;
20611;SDS011;10465;42.686;23.364;2022-10-26T15:23:52;6.10;;;1.85;;
20611;SDS011;10465;42.686;23.364;2022-10-26T15:26:18;3.63;;;2.00;;
20611;SDS011;10465;42.686;23.364;2022-10-26T15:28:44;5.68;;;2.10;;
20611;SDS011;10465;42.686;23.364;2022-10-26T15:36:17;3.25;;;2.35;;
20611;SDS011;10465;42.686;23.364;2022-10-26T15:38:47;8.27;;;2.70;;
20611;SDS011;10465;42.686;23.364;2022-10-26T15:41:14;7.07;;;2.65;;
20611;SDS011;10465;42.686;23.364;2022-10-26T15:43:45;7.05;;;2.70;;
20611;SDS011;10465;42.686;23.364;2022-10-26T15:46:12;7.30;;;2.72;;
20611;SDS011;10465;42.686;23.364;2022-10-26T15:48:38;4.18;;;2.50;;
20611;SDS011;10465;42.686;23.364;2022-10-26T15:51:04;6.43;;;2.78;;
20611;SDS011;10465;42.686;23.364;2022-10-26T15:53:31;8.00;;;3.03;;
20611;SDS011;10465;42.686;23.364;2022-10-26T15:55:57;6.72;;;2.92;;
20611;SDS011;10465;42.686;23.364;2022-10-26T15:58:24;5.57;;;3.00;;
20611;SDS011;10465;42.686;23.364;2022-10-26T16:00:51;6.80;;;3.00;;
20611;SDS011;10465;42.686;23.364;2022-10-26T16:03:21;8.68;;;3.75;;
20611;SDS011;10465;42.686;23.364;2022-10-26T16:05:55;7.13;;;3.33;;
20611;SDS011;10465;42.686;23.364;2022-10-26T16:08:22;7.40;;;3.47;;
20611;SDS011;10465;42.686;23.364;2022-10-26T16:10:50;5.95;;;2.55;;
20611;SDS011;10465;42.686;23.364;2022-10-26T16:13:15;6.93;;;3.03;;
20611;SDS011;10465;42.686;23.364;2022-10-26T16:15:41;8.40;;;3.75;;
20611;SDS011;10465;42.686;23.364;2022-10-26T16:18:07;7.75;;;3.50;;
20611;SDS011;10465;42.686;23.364;2022-10-26T16:20:32;9.82;;;3.30;;
20611;SDS011;10465;42.686;23.364;2022-10-26T16:22:58;6.82;;;3.28;;
20611;SDS011;10465;42.686;23.364;2022-10-26T16:25:30;5.95;;;3.13;;
20611;SDS011;10465;42.686;23.364;2022-10-26T16:27:55;7.38;;;3.67;;
20611;SDS011;10465;42.686;23.364;2022-10-26T16:30:22;8.38;;;3.92;;
20611;SDS011;10465;42.686;23.364;2022-10-26T16:32:48;6.50;;;3.30;;
20611;SDS011;10465;42.686;23.364;2022-10-26T16:35:13;14.95;;;5.20;;
20611;SDS011;10465;42.686;23.364;2022-10-26T16:37:39;16.38;;;4.80;;
20611;SDS011;10465;42.686;23.364;2022-10-26T16:40:05;12.90;;;4.75;;
20611;SDS011;10465;42.686;23.364;2022-10-26T16:42:31;8.13;;;3.70;;
20611;SDS011;10465;42.686;23.364;2022-10-26T16:44:57;7.13;;;4.10;;
20611;SDS011;10465;42.686;23.364;2022-10-26T16:47:23;7.68;;;4.03;;
20611;SDS011;10465;42.686;23.364;2022-10-26T16:49:49;7.13;;;4.10;;
20611;SDS011;10465;42.686;23.364;2022-10-26T16:52:15;10.52;;;5.35;;
20611;SDS011;10465;42.686;23.364;2022-10-26T16:54:41;9.60;;;5.15;;
20611;SDS011;10465;42.686;23.364;2022-10-26T16:57:07;11.15;;;4.88;;
20611;SDS011;10465;42.686;23.364;2022-10-26T16:59:32;9.13;;;5.03;;
20611;SDS011;10465;42.686;23.364;2022-10-26T17:01:58;12.02;;;5.03;;
20611;SDS011;10465;42.686;23.364;2022-10-26T17:04:23;10.88;;;5.20;;